createdAt,value
2017-06-13T00:00:00.892Z,99.99
2017-06-13T00:01:00.578Z,99.99
2017-06-13T00:02:00.555Z,99.99
2017-06-13T00:03:00.905Z,99.99
2017-06-13T00:04:00.883Z,99.99
2017-06-13T00:05:01.413Z,99.99
2017-06-13T00:06:00.853Z,99.99
2017-06-13T00:07:00.864Z,99.99
2017-06-13T00:08:00.513Z,99.99
2017-06-13T00:09:00.880Z,99.99
2017-06-13T00:10:00.820Z,99.99
2017-06-13T00:11:01.268Z,99.99
2017-06-13T00:12:00.802Z,99.99
2017-06-13T00:13:00.835Z,99.99
2017-06-13T00:14:00.471Z,99.99
2017-06-13T00:15:01.288Z,99.99
2017-06-13T00:16:00.450Z,99.99
2017-06-13T00:17:00.768Z,99.99
2017-06-13T00:18:00.455Z,99.99
2017-06-13T00:19:00.799Z,99.99
2017-06-13T00:20:00.778Z,99.99
2017-06-13T00:21:00.740Z,99.99
2017-06-13T00:22:00.731Z,99.99
2017-06-13T00:23:00.728Z,99.99
2017-06-13T00:24:00.773Z,99.99
2017-06-13T00:25:00.483Z,99.99
2017-06-13T00:26:00.715Z,99.99
2017-06-13T00:27:00.694Z,99.99
2017-06-13T00:28:00.619Z,99.99
2017-06-13T00:29:00.689Z,99.99
2017-06-13T00:30:00.671Z,99.99
2017-06-13T00:31:00.355Z,99.99
2017-06-13T00:32:00.655Z,99.99
2017-06-13T00:33:00.757Z,99.99
2017-06-13T00:34:01.096Z,99.99
2017-06-13T00:35:00.633Z,99.99
2017-06-13T00:36:00.324Z,99.99
2017-06-13T00:37:01.303Z,99.99
2017-06-13T00:38:01.078Z,99.99
2017-06-13T00:39:00.619Z,99.99
2017-06-13T00:40:00.597Z,99.99
2017-06-13T00:41:00.587Z,99.99
2017-06-13T00:42:00.580Z,99.99
2017-06-13T00:43:00.572Z,99.99
2017-06-13T00:44:01.086Z,99.99
2017-06-13T00:45:00.433Z,99.99
2017-06-13T00:46:00.547Z,99.99
2017-06-13T00:47:00.221Z,99.99
2017-06-13T00:48:00.254Z,99.99
2017-06-13T00:49:00.525Z,99.99
2017-06-13T00:50:00.784Z,99.99
2017-06-13T00:51:00.189Z,99.99
2017-06-13T00:52:00.196Z,99.99
2017-06-13T00:53:01.095Z,99.99
2017-06-13T00:54:00.536Z,99.99
2017-06-13T00:55:00.158Z,99.99
2017-06-13T00:56:00.471Z,99.99
2017-06-13T00:57:00.464Z,99.99
2017-06-13T00:58:00.453Z,99.99
2017-06-13T00:59:00.126Z,99.99
2017-06-13T01:00:00.459Z,99.99
2017-06-13T01:01:00.109Z,99.99
2017-06-13T01:02:00.103Z,99.99
2017-06-13T01:03:00.825Z,99.99
2017-06-13T01:04:00.970Z,99.99
2017-06-13T01:05:00.399Z,99.99
2017-06-13T01:06:00.397Z,99.99
2017-06-13T01:07:00.385Z,99.99
2017-06-13T01:08:00.070Z,99.99
2017-06-13T01:09:00.557Z,99.99
2017-06-13T01:10:00.486Z,99.99
2017-06-13T01:11:00.042Z,99.99
2017-06-13T01:12:00.022Z,99.99
2017-06-13T01:13:00.363Z,99.99
2017-06-13T01:14:00.058Z,99.99
2017-06-13T01:14:59.999Z,99.99
2017-06-13T01:15:59.991Z,99.99
2017-06-13T01:17:00.314Z,99.99
2017-06-13T01:18:00.355Z,99.99
2017-06-13T01:19:00.830Z,99.99
2017-06-13T01:20:00.283Z,99.99
2017-06-13T01:20:59.949Z,99.99
2017-06-13T01:21:59.942Z,99.99
2017-06-13T01:23:00.328Z,99.99
2017-06-13T01:24:00.725Z,99.99
2017-06-13T01:24:59.919Z,99.99
2017-06-13T01:25:59.910Z,99.99
2017-06-13T01:26:59.904Z,99.99
2017-06-13T01:27:59.897Z,99.99
2017-06-13T01:28:59.889Z,99.99
2017-06-13T01:30:00.736Z,99.99
2017-06-13T01:31:00.273Z,99.99
2017-06-13T01:32:00.200Z,99.99
2017-06-13T01:33:00.178Z,99.99
2017-06-13T01:34:00.194Z,99.99
2017-06-13T01:35:00.161Z,99.99
2017-06-13T01:36:00.154Z,99.99
2017-06-13T01:37:00.059Z,99.99
2017-06-13T01:38:00.637Z,99.99
2017-06-13T01:39:00.279Z,99.99
2017-06-13T01:40:00.122Z,99.99
2017-06-13T01:41:00.114Z,99.99
2017-06-13T01:42:00.101Z,99.99
2017-06-13T01:43:00.106Z,99.99
2017-06-13T01:44:00.087Z,99.99
2017-06-13T01:45:00.081Z,99.99
2017-06-13T01:46:00.072Z,99.99
2017-06-13T01:47:00.064Z,99.99
2017-06-13T01:47:59.734Z,99.99
2017-06-13T01:49:00.606Z,99.99
2017-06-13T01:50:00.677Z,99.99
2017-06-13T01:51:00.032Z,99.99
2017-06-13T01:51:59.702Z,99.99
2017-06-13T01:52:59.693Z,99.99
2017-06-13T01:54:00.005Z,99.99
2017-06-13T01:54:59.676Z,99.99
2017-06-13T01:56:00.417Z,99.99
2017-06-13T01:57:00.393Z,99.99
2017-06-13T01:57:59.976Z,99.99
2017-06-13T01:58:59.966Z,99.99
2017-06-13T01:59:59.959Z,99.99
2017-06-13T02:00:59.646Z,99.99
2017-06-13T02:01:59.944Z,99.99
2017-06-13T02:02:59.933Z,99.99
2017-06-13T02:04:00.251Z,99.99
2017-06-13T02:05:00.074Z,99.99
2017-06-13T02:05:59.817Z,99.99
2017-06-13T02:06:59.911Z,99.99
2017-06-13T02:07:59.893Z,99.99
2017-06-13T02:08:59.563Z,99.99
2017-06-13T02:09:59.878Z,99.99
2017-06-13T02:11:00.037Z,99.99
2017-06-13T02:12:00.004Z,99.99
2017-06-13T02:12:59.894Z,99.99
2017-06-13T02:13:59.845Z,99.99
2017-06-13T02:14:59.834Z,99.99
2017-06-13T02:15:59.839Z,99.99
2017-06-13T02:16:59.497Z,99.99
2017-06-13T02:17:59.812Z,99.99
2017-06-13T02:18:59.806Z,99.99
2017-06-13T02:19:59.734Z,99.99
2017-06-13T02:20:59.465Z,99.99
2017-06-13T02:21:59.776Z,99.99
2017-06-13T02:22:59.772Z,99.99
2017-06-13T02:23:59.762Z,99.99
2017-06-13T02:24:59.746Z,99.99
2017-06-13T02:25:59.747Z,99.99
2017-06-13T02:26:59.431Z,99.99
2017-06-13T02:27:59.731Z,99.99
2017-06-13T02:28:59.398Z,99.99
2017-06-13T02:29:59.404Z,99.99
2017-06-13T02:30:59.707Z,99.99
2017-06-13T02:31:59.705Z,99.99
2017-06-13T02:32:59.692Z,99.99
2017-06-13T02:33:59.687Z,99.99
2017-06-13T02:34:59.672Z,99.99
2017-06-13T02:35:59.665Z,99.99
2017-06-13T02:36:59.656Z,99.99
2017-06-13T02:37:59.328Z,99.99
2017-06-13T02:38:59.640Z,99.99
2017-06-13T02:39:59.637Z,99.99
2017-06-13T02:40:59.309Z,99.99
2017-06-13T02:41:59.299Z,99.99
2017-06-13T02:42:59.610Z,99.99
2017-06-13T02:43:59.607Z,99.99
2017-06-13T02:44:59.291Z,99.99
2017-06-13T02:45:59.591Z,99.99
2017-06-13T02:46:59.260Z,99.99
2017-06-13T02:47:59.574Z,99.99
2017-06-13T02:48:59.567Z,99.99
2017-06-13T02:49:59.559Z,99.99
2017-06-13T02:50:59.228Z,99.99
2017-06-13T02:51:59.543Z,99.99
2017-06-13T02:52:59.538Z,99.99
2017-06-13T02:53:59.208Z,99.99
2017-06-13T02:54:59.200Z,99.99
2017-06-13T02:55:59.517Z,99.99
2017-06-13T02:56:59.509Z,99.99
2017-06-13T02:57:59.521Z,99.99
2017-06-13T02:58:59.179Z,99.99
2017-06-13T02:59:59.165Z,99.99
2017-06-13T03:00:59.157Z,99.99
2017-06-13T03:01:59.473Z,99.99
2017-06-13T03:02:59.468Z,99.99
2017-06-13T03:03:59.458Z,99.99
2017-06-13T03:04:59.451Z,99.99
2017-06-13T03:05:59.444Z,99.99
2017-06-13T03:06:59.437Z,99.99
2017-06-13T03:07:59.108Z,99.99
2017-06-13T03:08:59.446Z,99.99
2017-06-13T03:09:59.418Z,99.99
2017-06-13T03:10:59.088Z,99.99
2017-06-13T03:11:59.400Z,99.99
2017-06-13T03:12:59.397Z,99.99
2017-06-13T03:13:59.406Z,99.99
2017-06-13T03:14:59.058Z,99.99
2017-06-13T03:15:59.049Z,99.99
2017-06-13T03:16:59.386Z,99.99
2017-06-13T03:17:59.035Z,99.99
2017-06-13T03:18:59.039Z,99.99
2017-06-13T03:19:59.020Z,99.99
2017-06-13T03:20:59.016Z,99.99
2017-06-13T03:21:59.012Z,99.99
2017-06-13T03:22:59.001Z,99.99
2017-06-13T03:23:58.995Z,99.99
2017-06-13T03:24:58.991Z,99.99
2017-06-13T03:25:59.304Z,99.99
2017-06-13T03:26:59.297Z,99.99
2017-06-13T03:27:58.973Z,99.99
2017-06-13T03:28:58.989Z,99.99
2017-06-13T03:29:59.276Z,99.99
2017-06-13T03:30:59.272Z,99.99
2017-06-13T03:31:58.939Z,99.99
2017-06-13T03:32:58.934Z,99.99
2017-06-13T03:33:59.246Z,99.99
2017-06-13T03:34:59.243Z,99.99
2017-06-13T03:35:59.237Z,99.99
2017-06-13T03:36:58.913Z,99.99
2017-06-13T03:37:59.218Z,99.99
2017-06-13T03:38:58.891Z,99.99
2017-06-13T03:39:59.208Z,99.99
2017-06-13T03:40:58.877Z,99.99
2017-06-13T03:41:58.870Z,99.99
2017-06-13T03:42:58.863Z,99.99
2017-06-13T03:43:59.182Z,99.99
2017-06-13T03:44:58.851Z,99.99
2017-06-13T03:45:59.166Z,99.99
2017-06-13T03:46:59.160Z,99.99
2017-06-13T03:47:58.830Z,99.99
2017-06-13T03:48:59.146Z,99.99
2017-06-13T03:49:59.136Z,99.75
2017-06-13T03:50:59.133Z,97.85
2017-06-13T03:51:59.125Z,97.66
2017-06-13T03:52:59.116Z,96.13
2017-06-13T03:53:58.811Z,96.13
2017-06-13T03:54:59.110Z,94.6
2017-06-13T03:55:59.107Z,94.32
2017-06-13T03:56:59.089Z,95.08
2017-06-13T03:57:59.083Z,93.93
2017-06-13T03:58:59.078Z,92.98
2017-06-13T03:59:58.778Z,92.98
2017-06-13T04:00:58.744Z,92.88
2017-06-13T04:01:58.736Z,92.22
2017-06-13T04:02:59.050Z,91.55
2017-06-13T04:03:59.094Z,91.64
2017-06-13T04:04:59.038Z,91.93
2017-06-13T04:05:58.707Z,90.88
2017-06-13T04:06:59.025Z,90.69
2017-06-13T04:07:59.020Z,90.59
2017-06-13T04:08:58.691Z,90.22
2017-06-13T04:09:59.031Z,89.4
2017-06-13T04:10:58.694Z,89.31
2017-06-13T04:11:59.012Z,90.45
2017-06-13T04:12:58.986Z,89.59
2017-06-13T04:13:58.658Z,88.26
2017-06-13T04:14:58.972Z,87.78
2017-06-13T04:15:58.646Z,86.35
2017-06-13T04:16:58.965Z,86.92
2017-06-13T04:17:58.965Z,86.92
2017-06-13T04:18:58.627Z,86.16
2017-06-13T04:19:58.954Z,86.06
2017-06-13T04:20:58.613Z,86.92
2017-06-13T04:21:58.607Z,87.59
2017-06-13T04:22:58.922Z,86.73
2017-06-13T04:23:58.593Z,86.35
2017-06-13T04:24:58.910Z,86.35
2017-06-13T04:25:58.903Z,86.35
2017-06-13T04:26:58.895Z,85.49
2017-06-13T04:27:58.591Z,85.21
2017-06-13T04:28:58.885Z,85.49
2017-06-13T04:29:58.876Z,85.3
2017-06-13T04:30:58.872Z,85.44
2017-06-13T04:31:58.865Z,84.2
2017-06-13T04:32:58.863Z,84.48
2017-06-13T04:33:58.857Z,84.1
2017-06-13T04:34:58.853Z,83.34
2017-06-13T04:35:58.538Z,83.62
2017-06-13T04:36:58.835Z,83.81
2017-06-13T04:37:58.512Z,83.62
2017-06-13T04:38:58.828Z,83.72
2017-06-13T04:39:58.505Z,82.95
2017-06-13T04:40:58.811Z,83.34
2017-06-13T04:41:58.810Z,82.95
2017-06-13T04:42:58.804Z,83.72
2017-06-13T04:43:58.471Z,83.57
2017-06-13T04:44:58.790Z,82.29
2017-06-13T04:45:58.462Z,81.95
2017-06-13T04:46:58.776Z,80.41
2017-06-13T04:47:58.770Z,80.41
2017-06-13T04:48:58.782Z,80.32
2017-06-13T04:49:58.760Z,79.85
2017-06-13T04:50:58.755Z,79.94
2017-06-13T04:51:58.753Z,80.32
2017-06-13T04:52:58.743Z,78.64
2017-06-13T04:53:58.412Z,78.22
2017-06-13T04:54:58.730Z,78.16
2017-06-13T04:55:58.402Z,77.84
2017-06-13T04:56:58.719Z,78.64
2017-06-13T04:57:58.392Z,78.64
2017-06-13T04:58:58.708Z,77.78
2017-06-13T04:59:58.717Z,75.83
2017-06-13T05:00:58.698Z,75.74
2017-06-13T05:01:58.711Z,76.03
2017-06-13T05:02:58.366Z,75.45
2017-06-13T05:03:58.690Z,75.93
2017-06-13T05:04:58.676Z,75.59
2017-06-13T05:05:58.673Z,76.45
2017-06-13T05:06:58.343Z,76.73
2017-06-13T05:07:58.660Z,76.82
2017-06-13T05:08:58.655Z,76.92
2017-06-13T05:09:58.648Z,76.54
2017-06-13T05:10:58.644Z,75.49
2017-06-13T05:11:58.641Z,75.1
2017-06-13T05:12:58.314Z,75.2
2017-06-13T05:13:58.629Z,75.49
2017-06-13T05:14:58.304Z,75.05
2017-06-13T05:15:58.297Z,75.52
2017-06-13T05:16:58.294Z,74.85
2017-06-13T05:17:58.289Z,75.14
2017-06-13T05:18:58.604Z,74.19
2017-06-13T05:19:58.293Z,74.19
2017-06-13T05:20:58.594Z,73.33
2017-06-13T05:21:58.592Z,73.43
2017-06-13T05:22:58.270Z,73.04
2017-06-13T05:23:58.579Z,73.27
2017-06-13T05:24:58.577Z,72.6
2017-06-13T05:25:58.249Z,72.98
2017-06-13T05:26:58.566Z,74.22
2017-06-13T05:27:58.242Z,74.22
2017-06-13T05:28:58.557Z,72.98
2017-06-13T05:29:58.236Z,72.41
2017-06-13T05:30:58.551Z,71.45
2017-06-13T05:31:58.222Z,71.36
2017-06-13T05:32:58.539Z,71.64
2017-06-13T05:33:58.537Z,72.5
2017-06-13T05:34:58.211Z,72.5
2017-06-13T05:35:58.528Z,72.5
2017-06-13T05:36:58.523Z,71.45
2017-06-13T05:37:58.198Z,71.36
2017-06-13T05:38:58.512Z,71.36
2017-06-13T05:39:58.508Z,71.07
2017-06-13T05:40:58.186Z,71.26
2017-06-13T05:41:58.501Z,70.59
2017-06-13T05:42:58.174Z,69.73
2017-06-13T05:43:58.493Z,68.87
2017-06-13T05:44:58.490Z,69.35
2017-06-13T05:45:58.483Z,68.58
2017-06-13T05:46:58.478Z,69.15
2017-06-13T05:47:58.152Z,70.5
2017-06-13T05:48:58.475Z,70.97
2017-06-13T05:49:58.465Z,70.21
2017-06-13T05:50:58.462Z,70.5
2017-06-13T05:51:58.479Z,70.4
2017-06-13T05:52:58.455Z,70.43
2017-06-13T05:53:58.129Z,70.53
2017-06-13T05:54:58.136Z,70.91
2017-06-13T05:55:58.443Z,71.77
2017-06-13T05:56:58.439Z,70.62
2017-06-13T05:57:58.460Z,69.29
2017-06-13T05:58:58.449Z,69.76
2017-06-13T05:59:58.424Z,70.24
2017-06-13T06:00:58.421Z,70.62
2017-06-13T06:01:58.419Z,70.62
2017-06-13T06:02:58.413Z,71.58
2017-06-13T06:03:58.432Z,71.26
2017-06-13T06:04:58.405Z,70.24
2017-06-13T06:05:58.401Z,70.34
2017-06-13T06:06:58.402Z,69.35
2017-06-13T06:07:58.415Z,69.19
2017-06-13T06:08:58.401Z,69.38
2017-06-13T06:09:58.388Z,70.01
2017-06-13T06:10:58.060Z,69.09
2017-06-13T06:11:58.381Z,69
2017-06-13T06:12:58.375Z,69.38
2017-06-13T06:13:58.381Z,69.76
2017-06-13T06:14:58.044Z,71.2
2017-06-13T06:15:58.040Z,70.43
2017-06-13T06:16:58.361Z,70.24
2017-06-13T06:17:58.355Z,68.74
2017-06-13T06:18:58.037Z,70.53
2017-06-13T06:19:58.347Z,70.91
2017-06-13T06:20:58.022Z,70.09
2017-06-13T06:21:58.020Z,68.55
2017-06-13T06:22:58.338Z,68.52
2017-06-13T06:23:58.336Z,68.42
2017-06-13T06:24:58.007Z,68.52
2017-06-13T06:25:58.324Z,68.74
2017-06-13T06:26:58.000Z,69.99
2017-06-13T06:27:57.998Z,70.47
2017-06-13T06:28:58.328Z,71.33
2017-06-13T06:29:58.310Z,72
2017-06-13T06:30:58.000Z,70.18
2017-06-13T06:31:58.303Z,68.94
2017-06-13T06:32:57.978Z,68.74
2017-06-13T06:33:58.298Z,69.99
2017-06-13T06:34:58.295Z,70.76
2017-06-13T06:35:57.967Z,69.8
2017-06-13T06:36:58.286Z,69.23
2017-06-13T06:37:57.959Z,69.23
2017-06-13T06:38:58.281Z,69.89
2017-06-13T06:39:57.969Z,71.04
2017-06-13T06:40:58.303Z,70.09
2017-06-13T06:41:58.270Z,68.94
2017-06-13T06:42:58.266Z,68.17
2017-06-13T06:43:57.949Z,68.36
2017-06-13T06:44:58.272Z,68.55
2017-06-13T06:45:58.256Z,68.94
2017-06-13T06:46:58.255Z,69.13
2017-06-13T06:47:57.926Z,68.74
2017-06-13T06:48:57.923Z,68.97
2017-06-13T06:49:57.923Z,68.87
2017-06-13T06:50:58.241Z,68.78
2017-06-13T06:51:58.239Z,69.45
2017-06-13T06:52:57.927Z,68.05
2017-06-13T06:53:58.229Z,68.68
2017-06-13T06:54:57.906Z,68.87
2017-06-13T06:55:58.225Z,68.43
2017-06-13T06:56:58.224Z,65.75
2017-06-13T06:57:57.896Z,65.75
2017-06-13T06:58:57.894Z,67.57
2017-06-13T06:59:58.212Z,67.54
2017-06-13T07:00:58.212Z,67.66
2017-06-13T07:01:58.210Z,66.86
2017-06-13T07:02:57.883Z,66.29
2017-06-13T07:03:57.880Z,65.94
2017-06-13T07:04:58.201Z,65.65
2017-06-13T07:05:58.212Z,64.12
2017-06-13T07:06:58.194Z,63.51
2017-06-13T07:07:58.191Z,63.99
2017-06-13T07:08:58.192Z,63.6
2017-06-13T07:09:57.869Z,63.32
2017-06-13T07:10:57.860Z,64.18
2017-06-13T07:11:58.180Z,65.42
2017-06-13T07:12:58.174Z,66.96
2017-06-13T07:13:58.173Z,66.67
2017-06-13T07:14:58.186Z,67.15
2017-06-13T07:15:58.179Z,66.86
2017-06-13T07:16:58.165Z,66.22
2017-06-13T07:17:58.159Z,66.03
2017-06-13T07:18:57.848Z,65.94
2017-06-13T07:19:58.159Z,64.53
2017-06-13T07:20:58.153Z,63.48
2017-06-13T07:21:58.172Z,61.46
2017-06-13T07:22:58.150Z,60.35
2017-06-13T07:23:58.159Z,59.48
2017-06-13T07:24:58.144Z,59.32
2017-06-13T07:25:57.852Z,57.68
2017-06-13T07:26:57.840Z,54.71
2017-06-13T07:27:57.816Z,55.1
2017-06-13T07:28:58.134Z,55.64
2017-06-13T07:29:57.888Z,55.93
2017-06-13T07:30:58.014Z,57.28
2017-06-13T07:31:58.128Z,57.82
2017-06-13T07:32:57.805Z,57.82
2017-06-13T07:33:58.143Z,57.82
2017-06-13T07:34:57.822Z,56.57
2017-06-13T07:35:58.122Z,55.62
2017-06-13T07:36:58.118Z,53.44
2017-06-13T07:37:58.117Z,54.08
2017-06-13T07:38:58.115Z,54.21
2017-06-13T07:39:58.120Z,54.21
2017-06-13T07:40:58.110Z,54.21
2017-06-13T07:41:57.786Z,53.17
2017-06-13T07:42:57.789Z,53.15
2017-06-13T07:43:57.794Z,55.07
2017-06-13T07:44:58.104Z,55.74
2017-06-13T07:45:58.099Z,55.16
2017-06-13T07:46:58.098Z,55.74
2017-06-13T07:47:58.097Z,54.39
2017-06-13T07:48:57.772Z,53.15
2017-06-13T07:49:57.768Z,52.36
2017-06-13T07:50:58.092Z,54.17
2017-06-13T07:51:57.766Z,54.85
2017-06-13T07:52:58.084Z,55.33
2017-06-13T07:53:58.084Z,55.4
2017-06-13T07:54:57.759Z,55.68
2017-06-13T07:55:58.080Z,55.68
2017-06-13T07:56:58.076Z,55.01
2017-06-13T07:57:58.075Z,54.91
2017-06-13T07:58:57.754Z,54.75
2017-06-13T07:59:58.072Z,55.8
2017-06-13T08:00:58.068Z,55.71
2017-06-13T08:01:58.069Z,54.66
2017-06-13T08:02:58.087Z,54.85
2017-06-13T08:03:58.073Z,54.97
2017-06-13T08:04:57.761Z,53.91
2017-06-13T08:05:57.757Z,52.09
2017-06-13T08:06:58.068Z,49.88
2017-06-13T08:07:58.054Z,49.31
2017-06-13T08:08:57.745Z,49.79
2017-06-13T08:09:58.056Z,49.41
2017-06-13T08:10:57.728Z,49.15
2017-06-13T08:11:57.726Z,47.8
2017-06-13T08:12:58.049Z,49.62
2017-06-13T08:13:57.724Z,49.17
2017-06-13T08:14:58.064Z,48.97
2017-06-13T08:15:57.720Z,48.23
2017-06-13T08:16:57.730Z,47.56
2017-06-13T08:17:57.716Z,47.46
2017-06-13T08:18:57.714Z,47.17
2017-06-13T08:19:58.045Z,47.25
2017-06-13T08:20:58.053Z,47.44
2017-06-13T08:21:57.715Z,48.4
2017-06-13T08:22:57.720Z,47.8
2017-06-13T08:23:58.043Z,49.24
2017-06-13T08:24:57.709Z,48.38
2017-06-13T08:25:58.028Z,49.72
2017-06-13T08:26:58.030Z,50.68
2017-06-13T08:27:58.028Z,51.45
2017-06-13T08:28:58.026Z,50.29
2017-06-13T08:29:57.700Z,48.38
2017-06-13T08:30:57.717Z,48.85
2017-06-13T08:31:58.026Z,49.62
2017-06-13T08:32:58.021Z,48.85
2017-06-13T08:33:57.695Z,47.77
2017-06-13T08:34:58.013Z,47.32
2017-06-13T08:35:57.693Z,46.55
2017-06-13T08:36:58.011Z,47.32
2017-06-13T08:37:57.689Z,47.99
2017-06-13T08:38:57.687Z,48.76
2017-06-13T08:39:58.008Z,48.76
2017-06-13T08:40:57.684Z,49.55
2017-06-13T08:41:58.004Z,48.49
2017-06-13T08:42:58.028Z,50.44
2017-06-13T08:43:58.004Z,48.43
2017-06-13T08:44:58.003Z,46.53
2017-06-13T08:45:57.701Z,45.59
2017-06-13T08:46:57.999Z,44.53
2017-06-13T08:47:57.997Z,44.45
2017-06-13T08:48:57.996Z,45.32
2017-06-13T08:49:57.675Z,44.07
2017-06-13T08:50:57.995Z,42.82
2017-06-13T08:51:57.700Z,43.78
2017-06-13T08:52:57.996Z,42.82
2017-06-13T08:53:58.021Z,43.76
2017-06-13T08:54:57.992Z,46.04
2017-06-13T08:55:57.991Z,44.89
2017-06-13T08:56:57.668Z,44.2
2017-06-13T08:57:57.668Z,45.35
2017-06-13T08:58:57.998Z,44.08
2017-06-13T08:59:57.997Z,45.81
2017-06-13T09:00:57.990Z,46.48
2017-06-13T09:01:57.686Z,46.38
2017-06-13T09:02:57.993Z,46.28
2017-06-13T09:03:57.986Z,46.28
2017-06-13T09:04:57.671Z,46.19
2017-06-13T09:05:58.008Z,44.75
2017-06-13T09:06:58.093Z,45.52
2017-06-13T09:07:58.066Z,45.54
2017-06-13T09:08:57.661Z,44.22
2017-06-13T09:09:57.679Z,44.02
2017-06-13T09:10:57.980Z,41.55
2017-06-13T09:11:57.660Z,41.82
2017-06-13T09:12:57.980Z,42
2017-06-13T09:13:57.675Z,43.54
2017-06-13T09:14:57.978Z,44.12
2017-06-13T09:15:57.996Z,43.64
2017-06-13T09:16:57.987Z,43.74
2017-06-13T09:17:57.652Z,43.84
2017-06-13T09:18:57.994Z,43.64
2017-06-13T09:19:57.653Z,44.51
2017-06-13T09:20:57.974Z,46.33
2017-06-13T09:21:57.993Z,44.53
2017-06-13T09:22:57.974Z,43.95
2017-06-13T09:23:57.972Z,44.05
2017-06-13T09:24:57.972Z,43.66
2017-06-13T09:25:57.649Z,42.5
2017-06-13T09:26:57.651Z,42.8
2017-06-13T09:27:57.974Z,41.64
2017-06-13T09:28:57.970Z,42.12
2017-06-13T09:29:57.969Z,44.41
2017-06-13T09:30:57.650Z,44.6
2017-06-13T09:31:57.979Z,43.74
2017-06-13T09:32:57.970Z,44.48
2017-06-13T09:33:57.648Z,45.25
2017-06-13T09:34:57.967Z,45.81
2017-06-13T09:35:57.969Z,46.77
2017-06-13T09:36:57.968Z,46.58
2017-06-13T09:37:57.968Z,46.86
2017-06-13T09:38:57.968Z,48.4
2017-06-13T09:39:57.967Z,49.55
2017-06-13T09:40:57.965Z,49
2017-06-13T09:41:57.987Z,49.77
2017-06-13T09:42:57.963Z,47.3
2017-06-13T09:43:57.640Z,45.66
2017-06-13T09:44:57.979Z,44.41
2017-06-13T09:45:57.964Z,44.89
2017-06-13T09:46:57.978Z,46.55
2017-06-13T09:47:57.637Z,45.39
2017-06-13T09:48:57.638Z,41.45
2017-06-13T09:49:57.976Z,42.8
2017-06-13T09:50:57.638Z,44.14
2017-06-13T09:51:57.961Z,43.76
2017-06-13T09:52:57.637Z,43.85
2017-06-13T09:53:57.959Z,41.55
2017-06-13T09:54:57.652Z,42.89
2017-06-13T09:55:57.959Z,43.18
2017-06-13T09:56:57.653Z,42.7
2017-06-13T09:57:57.634Z,43.95
2017-06-13T09:58:57.957Z,44.05
2017-06-13T09:59:57.970Z,42.89
2017-06-13T10:00:57.634Z,41.83
2017-06-13T10:01:57.956Z,42.89
2017-06-13T10:02:57.959Z,43.66
2017-06-13T10:03:57.960Z,43.85
2017-06-13T10:04:57.964Z,44.14
2017-06-13T10:05:57.956Z,44.55
2017-06-13T10:06:57.634Z,41.28
2017-06-13T10:07:57.633Z,41.86
2017-06-13T10:08:57.636Z,41.59
2017-06-13T10:09:57.976Z,40.43
2017-06-13T10:10:57.957Z,39.76
2017-06-13T10:11:57.956Z,39.18
2017-06-13T10:12:57.955Z,37.64
2017-06-13T10:13:57.960Z,39.28
2017-06-13T10:14:57.635Z,38.79
2017-06-13T10:15:57.955Z,38.91
2017-06-13T10:16:57.684Z,39.2
2017-06-13T10:17:57.975Z,43.34
2017-06-13T10:18:57.959Z,41.51
2017-06-13T10:19:57.961Z,38.81
2017-06-13T10:20:57.960Z,39.76
2017-06-13T10:21:57.960Z,40.05
2017-06-13T10:22:57.959Z,40.34
2017-06-13T10:23:57.962Z,39.83
2017-06-13T10:24:57.644Z,41.08
2017-06-13T10:25:58.017Z,40.78
2017-06-13T10:26:57.639Z,40.39
2017-06-13T10:27:57.639Z,39.99
2017-06-13T10:28:57.959Z,40.18
2017-06-13T10:29:57.980Z,40.85
2017-06-13T10:30:57.961Z,41.33
2017-06-13T10:31:57.662Z,41.72
2017-06-13T10:32:57.959Z,41.05
2017-06-13T10:33:57.959Z,42
2017-06-13T10:34:57.960Z,42.2
2017-06-13T10:35:57.639Z,42.68
2017-06-13T10:36:57.654Z,42.3
2017-06-13T10:37:57.637Z,42.8
2017-06-13T10:38:57.975Z,41.74
2017-06-13T10:39:57.635Z,40.58
2017-06-13T10:40:57.637Z,39.62
2017-06-13T10:41:57.956Z,40.39
2017-06-13T10:42:57.978Z,39.14
2017-06-13T10:43:57.958Z,38.66
2017-06-13T10:44:57.972Z,39.24
2017-06-13T10:45:57.959Z,40.68
2017-06-13T10:46:57.958Z,41.86
2017-06-13T10:47:57.958Z,41.76
2017-06-13T10:48:57.635Z,39.28
2017-06-13T10:49:57.641Z,40.53
2017-06-13T10:50:57.960Z,41.11
2017-06-13T10:51:57.638Z,38.6
2017-06-13T10:52:57.634Z,37.35
2017-06-13T10:53:57.635Z,38.2
2017-06-13T10:54:57.635Z,38.87
2017-06-13T10:55:57.636Z,42.65
2017-06-13T10:56:57.973Z,38.04
2017-06-13T10:57:57.956Z,38.53
2017-06-13T10:58:57.634Z,38.51
2017-06-13T10:59:57.635Z,35.91
2017-06-13T11:00:57.958Z,36.49
2017-06-13T11:01:57.636Z,37.93
2017-06-13T11:02:57.635Z,39.09
2017-06-13T11:03:57.957Z,39.83
2017-06-13T11:04:57.961Z,39.06
2017-06-13T11:05:57.637Z,40.97
2017-06-13T11:06:57.636Z,42.32
2017-06-13T11:07:57.634Z,42.8
2017-06-13T11:08:57.636Z,42.87
2017-06-13T11:09:57.959Z,43.84
2017-06-13T11:10:57.958Z,44.51
2017-06-13T11:11:57.639Z,44.24
2017-06-13T11:12:57.635Z,44.62
2017-06-13T11:13:57.636Z,43.08
2017-06-13T11:14:57.986Z,41.55
2017-06-13T11:15:57.956Z,40.01
2017-06-13T11:16:57.984Z,40.11
2017-06-13T11:17:57.980Z,40.39
2017-06-13T11:18:57.955Z,40.2
2017-06-13T11:19:57.956Z,39.81
2017-06-13T11:20:57.957Z,40.3
2017-06-13T11:21:57.633Z,41.45
2017-06-13T11:22:57.959Z,39.91
2017-06-13T11:23:57.978Z,40.2
2017-06-13T11:24:57.637Z,40.2
2017-06-13T11:25:57.655Z,42.22
2017-06-13T11:26:57.957Z,42.63
2017-06-13T11:27:57.649Z,41.18
2017-06-13T11:28:57.955Z,40.58
2017-06-13T11:29:57.955Z,41.45
2017-06-13T11:30:57.641Z,41.64
2017-06-13T11:31:57.955Z,41.38
2017-06-13T11:32:57.633Z,41.56
2017-06-13T11:33:57.639Z,40.12
2017-06-13T11:34:57.964Z,39.56
2017-06-13T11:35:57.955Z,38.31
2017-06-13T11:36:57.633Z,37.83
2017-06-13T11:37:57.955Z,38.6
2017-06-13T11:38:57.636Z,38.51
2017-06-13T11:39:57.631Z,39.66
2017-06-13T11:40:57.958Z,39.28
2017-06-13T11:41:57.957Z,42.16
2017-06-13T11:42:57.653Z,40.51
2017-06-13T11:43:57.632Z,37.93
2017-06-13T11:44:57.633Z,39.66
2017-06-13T11:45:57.961Z,41.49
2017-06-13T11:46:57.957Z,37.83
2017-06-13T11:47:57.636Z,38.33
2017-06-13T11:48:57.955Z,40.64
2017-06-13T11:49:57.956Z,39.2
2017-06-13T11:50:57.974Z,39.79
2017-06-13T11:51:57.958Z,38.43
2017-06-13T11:52:57.634Z,37.95
2017-06-13T11:53:57.958Z,38.04
2017-06-13T11:54:57.636Z,40.05
2017-06-13T11:55:57.975Z,40.24
2017-06-13T11:56:57.637Z,38.81
2017-06-13T11:57:57.958Z,40.84
2017-06-13T11:58:57.965Z,41.22
2017-06-13T11:59:57.970Z,41.61
2017-06-13T12:00:57.965Z,41.14
2017-06-13T12:01:57.966Z,34.69
2017-06-13T12:02:57.638Z,35.46
2017-06-13T12:03:57.961Z,36.71
2017-06-13T12:04:57.644Z,36.89
2017-06-13T12:05:57.640Z,37.19
2017-06-13T12:06:57.964Z,37.01
2017-06-13T12:07:57.964Z,37.01
2017-06-13T12:08:57.642Z,38.06
2017-06-13T12:09:57.964Z,37.68
2017-06-13T12:10:57.969Z,38.16
2017-06-13T12:11:57.975Z,38.26
2017-06-13T12:12:57.967Z,38.08
2017-06-13T12:13:57.647Z,38.35
2017-06-13T12:14:57.979Z,39.43
2017-06-13T12:15:57.970Z,38.08
2017-06-13T12:16:57.968Z,38.87
2017-06-13T12:17:57.973Z,37.43
2017-06-13T12:18:57.670Z,37.62
2017-06-13T12:19:57.652Z,37.43
2017-06-13T12:20:57.975Z,37.6
2017-06-13T12:21:57.974Z,37.91
2017-06-13T12:22:57.657Z,38.2
2017-06-13T12:23:57.977Z,39.26
2017-06-13T12:24:57.995Z,39.66
2017-06-13T12:25:57.982Z,38.79
2017-06-13T12:26:57.661Z,36.85
2017-06-13T12:27:57.674Z,39.14
2017-06-13T12:28:57.679Z,40.59
2017-06-13T12:29:57.985Z,37.79
2017-06-13T12:30:57.986Z,37.89
2017-06-13T12:31:57.668Z,38.06
2017-06-13T12:32:57.667Z,38.16
2017-06-13T12:33:57.995Z,38.43
2017-06-13T12:34:57.997Z,40.26
2017-06-13T12:35:57.995Z,41.63
2017-06-13T12:36:57.994Z,40.76
2017-06-13T12:37:57.671Z,39.7
2017-06-13T12:38:57.674Z,38.93
2017-06-13T12:39:57.995Z,38.06
2017-06-13T12:40:58.013Z,43.05
2017-06-13T12:41:58.010Z,42.76
2017-06-13T12:42:57.999Z,42.57
2017-06-13T12:43:58.001Z,42.19
2017-06-13T12:44:57.681Z,41.03
2017-06-13T12:45:58.002Z,41.97
2017-06-13T12:46:57.683Z,41.78
2017-06-13T12:47:57.682Z,42.84
2017-06-13T12:48:57.682Z,43.13
2017-06-13T12:49:57.682Z,39.95
2017-06-13T12:50:57.684Z,40.05
2017-06-13T12:51:58.060Z,39.76
2017-06-13T12:52:58.013Z,40.14
2017-06-13T12:53:58.011Z,39.86